METAR Data
IDs: Format: Raw Decoded Include TAF

Data at: 1045 UTC 18 Jan 2022

K46D 181035Z AUTO VRB04KT 10SM CLR M07/M07 A2937 RMK AO2
K46D 181015Z AUTO 14005KT 10SM CLR M07/M08 A2938 RMK AO2
K46D 180955Z AUTO 14009KT 7SM CLR M07/M07 A2938 RMK AO2
K46D 180935Z AUTO 13008KT 6SM BR CLR M06/M07 A2941 RMK AO2
K46D 180915Z AUTO 15010KT 8SM SCT110 M06/M06 A2942 RMK AO2
K46D 180855Z AUTO 15016KT 5SM BR OVC110 M05/M05 A2942 RMK AO2
K46D 180835Z AUTO 14013KT 5SM BR OVC110 M05/M05 A2943 RMK AO2
K46D 180815Z AUTO 14010G15KT 4SM BR SCT003 OVC110 M05/M05 A2946 RMK AO2
K46D 180755Z AUTO 11008KT 4SM BR OVC003 M05/M05 A2947 RMK AO2
K46D 180735Z AUTO 14014G20KT 3SM BR OVC002 M05/M05 A2947 RMK AO2
K46D 180715Z AUTO 15016KT 2SM BR OVC002 M05/M05 A2947 RMK AO2
K46D 180655Z AUTO 15014G19KT 2SM BR OVC002 M05/M05 A2948 RMK AO2
K46D 180635Z AUTO 15017KT 2 1/2SM BR OVC002 M05/M05 A2950 RMK AO2
K46D 180615Z AUTO 15014KT 3SM BR OVC002 M04/M05 A2953 RMK AO2
K46D 180555Z AUTO 15016KT 3SM BR OVC002 M04/M05 A2954 RMK AO2
K46D 180535Z AUTO 15016KT 3SM BR OVC002 M04/M04 A2956 RMK AO2
K46D 180515Z AUTO 15014KT 2 1/2SM BR OVC002 M04/M04 A2959 RMK AO2
K46D 180455Z AUTO 14013KT 1SM BR OVC001 M04/M04 A2959 RMK AO2
K46D 180435Z AUTO 14014KT 3/4SM BR OVC001 M04/M04 A2961 RMK AO2
K46D 180415Z AUTO 14013KT 1SM BR OVC001 M04/M04 A2963 RMK AO2
K46D 180355Z AUTO 14015KT 3SM BR OVC002 M04/M04 A2964 RMK AO2
K46D 180335Z AUTO 14013KT 3SM BR OVC002 M04/M04 A2965 RMK AO2
K46D 180315Z AUTO 14015KT 2 1/2SM BR OVC002 M04/M04 A2965 RMK AO2
K46D 180255Z AUTO 14015KT 3SM BR OVC002 M04/M04 A2966 RMK AO2
K46D 180235Z AUTO 14012G17KT 3SM BR OVC001 M04/M04 A2967 RMK AO2
K46D 180215Z AUTO 13013KT 6SM BR OVC002 M04/M04 A2970 RMK AO2
K46D 180155Z AUTO 13014KT 8SM OVC003 M04/M04 A2969 RMK AO2
K46D 180135Z AUTO 12012KT 10SM OVC003 M04/M04 A2971 RMK AO2
K46D 180115Z AUTO 12013KT 10SM OVC003 M04/M04 A2972 RMK AO2
K46D 180055Z AUTO 13014KT 10SM OVC004 M04/M04 A2972 RMK AO2
K46D 180035Z AUTO 13016KT 10SM OVC005 M04/M04 A2971 RMK AO2
K46D 180015Z AUTO 13014KT 10SM M03/M04 A2972 RMK AO2
K46D 172355Z AUTO 13014KT 10SM OVC005 M03/M04 A2972 RMK AO2
K46D 172335Z AUTO 12015KT 10SM OVC004 M03/M04 A2973 RMK AO2
K46D 172315Z AUTO 12013KT 10SM OVC003 M03/M03 A2974 RMK AO2
K46D 172255Z AUTO 11011KT 10SM OVC004 M03/M03 A2974 RMK AO2
K46D 172235Z AUTO 11013KT 10SM OVC004 M03/M03 A2973 RMK AO2
K46D 172215Z AUTO 11010G17KT 10SM OVC004 M03/M03 A2974 RMK AO2
K46D 172155Z AUTO 09013KT 10SM OVC005 M02/M03 A2973 RMK AO2
K46D 172135Z AUTO 10011KT 10SM OVC005 M02/M03 A2975 RMK AO2
K46D 172115Z AUTO 11011KT 10SM BKN006 OVC080 M02/M03 A2975 RMK AO2
K46D 172055Z AUTO 11011G16KT 10SM OVC080 M02/M03 A2974 RMK AO2
K46D 172035Z AUTO 11010KT 10SM BKN075 OVC085 M02/M04 A2975 RMK AO2
K46D 172015Z AUTO 10010KT 10SM OVC080 M02/M04 A2975 RMK AO2
K46D 171955Z AUTO 09012KT 10SM OVC080 M02/M04 A2974 RMK AO2
K46D 171935Z AUTO 08012KT 10SM OVC080 M02/M04 A2976 RMK AO2
K46D 171915Z AUTO 07010KT 10SM FEW075 OVC085 M02/M03 A2975 RMK AO2
K46D 171855Z AUTO 07008KT 10SM BKN070 OVC085 M02/M03 A2978 RMK AO2
K46D 171835Z AUTO 06006KT 10SM OVC085 M01/M03 A2977 RMK AO2
K46D 171815Z AUTO 06006KT 10SM FEW055 OVC085 M00/M03 A2977 RMK AO2
K46D 171755Z AUTO 11003KT 10SM SCT055 OVC090 M01/M03 A2977 RMK AO2
K46D 171735Z AUTO 09003KT 10SM OVC055 M01/M03 A2978 RMK AO2
K46D 171715Z AUTO 13003KT 10SM OVC055 M02/M03 A2978 RMK AO2
K46D 171655Z AUTO 16004KT 10SM OVC055 M02/M03 A2979 RMK AO2
K46D 171635Z AUTO 14005KT 10SM OVC055 M02/M04 A2979 RMK AO2
K46D 171615Z AUTO 12004KT 10SM OVC060 M02/M04 A2978 RMK AO2
K46D 171555Z AUTO 00000KT 10SM OVC060 M02/M04 A2978 RMK AO2
K46D 171535Z AUTO 03006KT 10SM OVC060 M03/M04 A2978 RMK AO2
K46D 171515Z AUTO 05005KT 10SM OVC060 M02/M04 A2978 RMK AO2
K46D 171455Z AUTO 04007KT 10SM OVC065 M03/M04 A2978 RMK AO2
K46D 171435Z AUTO 00000KT 10SM OVC060 M03/M04 A2977 RMK AO2
K46D 171415Z AUTO 00000KT 10SM OVC060 M03/M04 A2977 RMK AO2
K46D 171355Z AUTO 24005KT 10SM BKN070 BKN080 OVC090 M02/M04 A2978 RMK AO2
K46D 171335Z AUTO 25005KT 10SM BKN085 M03/M04 A2979 RMK AO2
K46D 171315Z AUTO 24005KT 10SM FEW065 FEW085 M03/M04 A2979 RMK AO2
K46D 171255Z AUTO 00000KT 10SM CLR M03/M04 A2979 RMK AO2
K46D 171235Z AUTO 25005KT 10SM CLR M03/M04 A2979 RMK AO2
K46D 171215Z AUTO 26005KT 10SM FEW075 M03/M04 A2980 RMK AO2
K46D 171155Z AUTO 24005KT 10SM CLR M02/M04 A2979 RMK AO2
K46D 171135Z AUTO 24005KT 10SM CLR M02/M04 A2979 RMK AO2
K46D 171115Z AUTO 25006KT 10SM CLR M03/M04 A2979 RMK AO2
K46D 171055Z AUTO 23007KT 10SM CLR M03/M05 A2979 RMK AO2
K46D 171035Z AUTO 23007G12KT 10SM FEW120 M03/M05 A2980 RMK AO2
K46D 171015Z AUTO 25008KT 10SM BKN120 M03/M05 A2981 RMK AO2
K46D 170955Z AUTO 26012KT 10SM SCT120 M03/M05 A2982 RMK AO2
K46D 170935Z AUTO 25007KT 10SM CLR M04/M05 A2982 RMK AO2
K46D 170915Z AUTO 25007KT 10SM CLR M04/M05 A2983 RMK AO2
K46D 170855Z AUTO 25008KT 10SM CLR M04/M06 A2984 RMK AO2
K46D 170835Z AUTO 26009KT 10SM CLR M04/M06 A2984 RMK AO2
K46D 170815Z AUTO 26009KT 10SM CLR M04/M06 A2985 RMK AO2
K46D 170755Z AUTO 26010KT 10SM CLR M04/M05 A2985 RMK AO2
K46D 170735Z AUTO 26011KT 10SM CLR M04/M05 A2985 RMK AO2
K46D 170715Z AUTO 25010KT 10SM CLR M04/M05 A2985 RMK AO2
K46D 170655Z AUTO 26010KT 10SM CLR M04/M05 A2986 RMK AO2
K46D 170635Z AUTO 26011KT 10SM CLR M04/M05 A2987 RMK AO2
K46D 170615Z AUTO 27010KT 10SM CLR M04/M05 A2987 RMK AO2
K46D 170555Z AUTO 27011KT 10SM SCT023 M03/M04 A2987 RMK AO2
K46D 170535Z AUTO 26010KT 10SM OVC023 M01/M03 A2988 RMK AO2
K46D 170515Z AUTO 26012KT 10SM OVC020 M01/M02 A2989 RMK AO2
K46D 170455Z AUTO 26012KT 10SM BKN018 OVC046 M01/M02 A2990 RMK AO2
K46D 170435Z AUTO 26013KT 10SM OVC015 M01/M02 A2989 RMK AO2
K46D 170415Z AUTO 26009KT 10SM OVC014 M01/M02 A2990 RMK AO2
K46D 170355Z AUTO 28011KT 10SM OVC014 M01/M02 A2991 RMK AO2
K46D 170335Z AUTO 26009KT 10SM OVC016 M01/M02 A2992 RMK AO2
K46D 170315Z AUTO 24005KT 10SM OVC018 M01/M02 A2993 RMK AO2
K46D 170255Z AUTO 25007KT 10SM OVC016 M01/M02 A2994 RMK AO2
K46D 170235Z AUTO 27008KT 10SM OVC016 M01/M02 A2994 RMK AO2
K46D 170215Z AUTO 25005KT 10SM OVC017 M01/M02 A2994 RMK AO2
K46D 170155Z AUTO 00000KT 10SM FEW012 OVC020 M02/M03 A2994 RMK AO2
K46D 170135Z AUTO 27003KT 10SM SCT014 OVC021 M01/M03 A2994 RMK AO2
K46D 170115Z AUTO 32004KT 10SM OVC018 M01/M03 A2994 RMK AO2
K46D 170055Z AUTO 31006KT 10SM OVC019 M01/M03 A2995 RMK AO2
K46D 170035Z AUTO 31009KT 10SM OVC020 M01/M03 A2994 RMK AO2
K46D 170015Z AUTO 33009KT 10SM OVC021 M00/M04 A2993 RMK AO2
K46D 162355Z AUTO 31012KT 10SM OVC019 M01/M03 A2995 RMK AO2
K46D 162335Z AUTO 30015KT 10SM OVC019 M01/M03 A2995 RMK AO2
K46D 162315Z AUTO 31007KT 10SM OVC020 M01/M03 A2995 RMK AO2
K46D 162255Z AUTO 31005KT 10SM OVC022 M01/M03 A2994 RMK AO2